createdAt,value
2018-12-02T00:00:54.524Z,91.19
2018-12-02T00:03:23.672Z,91.69
2018-12-02T00:05:52.588Z,90.21
2018-12-02T00:08:21.541Z,91.06
2018-12-02T00:10:50.423Z,91.38
2018-12-02T00:13:19.335Z,91.71
2018-12-02T00:15:48.287Z,91.84
2018-12-02T00:18:17.179Z,91.99
2018-12-02T00:20:46.075Z,91.94
2018-12-02T00:23:14.962Z,90.57
2018-12-02T00:25:43.863Z,89.52
2018-12-02T00:28:12.750Z,91.19
2018-12-02T00:30:41.664Z,91.32
2018-12-02T00:33:10.589Z,91.55
2018-12-02T00:35:39.507Z,91.23
2018-12-02T00:38:08.941Z,91.37
2018-12-02T00:40:37.837Z,91.95
2018-12-02T00:43:07.856Z,92.45
2018-12-02T00:45:37.658Z,92.28
2018-12-02T00:48:07.736Z,92.72
2018-12-02T00:50:36.669Z,92.47
2018-12-02T00:53:06.968Z,93.43
2018-12-02T00:55:43.025Z,93.20
2018-12-02T00:58:11.902Z,93.09
2018-12-02T01:00:40.808Z,91.75
2018-12-02T01:03:10.432Z,92.12
2018-12-02T01:05:39.337Z,91.08
2018-12-02T01:08:08.304Z,92.27
2018-12-02T01:10:37.409Z,91.87
2018-12-02T01:13:10.104Z,91.27
2018-12-02T01:15:40.221Z,91.61
2018-12-02T01:18:09.584Z,91.43
2018-12-02T01:20:39.303Z,90.15
2018-12-02T01:23:08.277Z,91.15
2018-12-02T01:25:37.261Z,91.42
2018-12-02T01:28:06.671Z,90.96
2018-12-02T01:30:35.697Z,91.31
2018-12-02T01:33:04.619Z,91.22
2018-12-02T01:35:33.493Z,91.06
2018-12-02T01:38:02.393Z,91.01
2018-12-02T01:40:31.283Z,91.02
2018-12-02T01:43:00.189Z,90.85
2018-12-02T01:45:29.122Z,90.84
2018-12-02T01:47:58.015Z,91.26
2018-12-02T01:50:27.213Z,91.29
2018-12-02T01:52:56.944Z,91.29
2018-12-02T01:55:25.862Z,90.89
2018-12-02T01:57:54.745Z,90.84
2018-12-02T02:00:27.781Z,91.18
2018-12-02T02:02:57.212Z,90.93
2018-12-02T02:05:26.851Z,90.31
2018-12-02T02:07:55.726Z,90.65
2018-12-02T02:10:28.318Z,90.24
2018-12-02T02:12:57.225Z,90.73
2018-12-02T02:15:26.139Z,90.94
2018-12-02T02:17:55.007Z,90.61
2018-12-02T02:20:24.705Z,90.48
2018-12-02T02:22:53.705Z,90.80
2018-12-02T02:25:23.505Z,91.33
2018-12-02T02:27:54.109Z,91.93
2018-12-02T02:30:24.152Z,91.39
2018-12-02T02:32:53.077Z,92.44
2018-12-02T02:35:22.543Z,92.48
2018-12-02T02:37:55.323Z,92.15
2018-12-02T02:40:30.651Z,91.90
2018-12-02T02:42:59.528Z,91.85
2018-12-02T02:45:28.434Z,92.17
2018-12-02T02:47:57.335Z,92.39
2018-12-02T02:50:26.546Z,92.56
2018-12-02T02:52:59.586Z,92.25
2018-12-02T02:55:28.506Z,92.63
2018-12-02T02:57:57.480Z,92.20
2018-12-02T03:00:29.549Z,90.62
2018-12-02T03:02:58.431Z,91.11
2018-12-02T03:05:27.296Z,92.00
2018-12-02T03:07:56.192Z,92.42
2018-12-02T03:10:25.089Z,91.96
2018-12-02T03:12:54.427Z,92.44
2018-12-02T03:15:23.926Z,91.84
2018-12-02T03:17:52.816Z,91.74
2018-12-02T03:20:22.529Z,91.92
2018-12-02T03:22:54.936Z,92.10
2018-12-02T03:25:24.811Z,92.10
2018-12-02T03:27:53.866Z,93.37
2018-12-02T03:30:23.430Z,92.85
2018-12-02T03:32:52.396Z,92.77
2018-12-02T03:35:22.243Z,91.14
2018-12-02T03:37:51.441Z,92.25
2018-12-02T03:40:27.488Z,92.56
2018-12-02T03:42:56.463Z,92.69
2018-12-02T03:45:28.537Z,92.51
2018-12-02T03:47:58.168Z,92.71
2018-12-02T03:50:27.059Z,93.18
2018-12-02T03:52:55.966Z,93.53
2018-12-02T03:55:24.849Z,93.70
2018-12-02T03:57:54.024Z,94.09
2018-12-02T04:00:24.219Z,93.67
2018-12-02T04:02:53.964Z,91.92
2018-12-02T04:05:26.433Z,92.71
2018-12-02T04:07:55.326Z,92.81
2018-12-02T04:10:24.218Z,92.87
2018-12-02T04:12:53.455Z,93.51
2018-12-02T04:15:25.655Z,93.37
2018-12-02T04:17:54.526Z,93.21
2018-12-02T04:20:23.428Z,93.24
2018-12-02T04:22:52.736Z,93.37
2018-12-02T04:25:25.462Z,93.55
2018-12-02T04:27:54.335Z,93.40
2018-12-02T04:30:23.726Z,93.49
2018-12-02T04:32:53.250Z,94.04
2018-12-02T04:35:25.811Z,92.33
2018-12-02T04:37:54.754Z,92.98
2018-12-02T04:40:23.640Z,93.29
2018-12-02T04:42:52.522Z,93.03
2018-12-02T04:45:21.407Z,93.03
2018-12-02T04:47:50.405Z,93.08
2018-12-02T04:50:25.430Z,92.68
2018-12-02T04:52:54.318Z,92.38
2018-12-02T04:55:23.222Z,92.92
2018-12-02T04:57:52.138Z,92.88
2018-12-02T05:00:21.491Z,92.79
2018-12-02T05:02:51.288Z,93.06
2018-12-02T05:05:24.098Z,93.46
2018-12-02T05:07:53.591Z,93.67
2018-12-02T05:10:22.616Z,93.59
2018-12-02T05:12:51.814Z,93.48
2018-12-02T05:15:21.386Z,93.43
2018-12-02T05:17:50.295Z,93.73
2018-12-02T05:20:20.220Z,93.31
2018-12-02T05:22:49.101Z,93.48
2018-12-02T05:25:18.746Z,93.69
2018-12-02T05:27:47.290Z,93.63
2018-12-02T05:30:22.739Z,93.27
2018-12-02T05:32:54.742Z,93.19
2018-12-02T05:35:23.606Z,92.20
2018-12-02T05:37:55.532Z,92.70
2018-12-02T05:40:24.699Z,92.88
2018-12-02T05:42:54.088Z,93.03
2018-12-02T05:45:23.209Z,93.12
2018-12-02T05:47:52.135Z,93.26
2018-12-02T05:50:24.823Z,93.44
2018-12-02T05:53:00.227Z,93.31
2018-12-02T05:55:30.380Z,93.62
2018-12-02T05:57:59.266Z,93.26
2018-12-02T06:00:28.160Z,93.31
2018-12-02T06:02:57.058Z,93.68
2018-12-02T06:05:25.966Z,93.54
2018-12-02T06:07:54.885Z,93.83
2018-12-02T06:10:23.867Z,94.21
2018-12-02T06:12:52.764Z,93.67
2018-12-02T06:15:21.929Z,93.18
2018-12-02T06:17:50.845Z,92.64
2018-12-02T06:20:26.520Z,93.69
2018-12-02T06:22:56.256Z,93.81
2018-12-02T06:25:25.160Z,94.40
2018-12-02T06:27:54.115Z,94.63
2018-12-02T06:30:29.448Z,94.39
2018-12-02T06:32:59.602Z,95.01
2018-12-02T06:35:28.533Z,95.13
2018-12-02T06:37:58.519Z,95.20
2018-12-02T06:40:28.319Z,95.24
2018-12-02T06:42:57.192Z,94.98
2018-12-02T06:45:26.118Z,94.23
2018-12-02T06:47:55.003Z,93.16
2018-12-02T06:50:27.679Z,93.84
2018-12-02T06:52:57.269Z,94.20
2018-12-02T06:55:59.849Z,94.26
2018-12-02T06:59:11.825Z,94.33
2018-12-02T07:02:24.000Z,93.12
2018-12-02T07:04:52.897Z,94.69
2018-12-02T07:07:21.769Z,94.74
2018-12-02T07:09:50.683Z,95.00
2018-12-02T07:12:19.550Z,95.08
2018-12-02T07:14:48.464Z,95.10
2018-12-02T07:17:17.364Z,94.94
2018-12-02T07:19:48.643Z,94.90
2018-12-02T07:22:20.874Z,94.88
2018-12-02T07:24:51.244Z,95.42
2018-12-02T07:27:20.135Z,95.36
2018-12-02T07:29:49.011Z,95.46
2018-12-02T07:32:17.891Z,95.79
2018-12-02T07:34:46.783Z,95.85
2018-12-02T07:37:20.421Z,96.28
2018-12-02T07:40:28.018Z,95.95
2018-12-02T07:42:56.949Z,96.08
2018-12-02T07:45:25.823Z,95.76
2018-12-02T07:47:54.720Z,95.95
2018-12-02T07:50:23.620Z,96.29
2018-12-02T07:52:52.529Z,96.46
2018-12-02T07:55:21.409Z,96.93
2018-12-02T07:57:50.284Z,96.94
2018-12-02T08:00:19.154Z,96.74
2018-12-02T08:02:48.101Z,97.03
2018-12-02T08:05:17.649Z,96.84
2018-12-02T08:07:48.081Z,96.71
2018-12-02T08:10:17.996Z,97.25
2018-12-02T08:12:46.887Z,97.33
2018-12-02T08:15:17.016Z,97.36
2018-12-02T08:17:45.912Z,97.28
2018-12-02T08:20:15.946Z,97.34
2018-12-02T08:22:51.121Z,96.90
2018-12-02T08:25:15.347Z,96.79
2018-12-02T08:27:44.252Z,96.79
2018-12-02T08:30:20.284Z,97.21
2018-12-02T08:32:49.184Z,97.36
2018-12-02T08:35:19.263Z,97.60
2018-12-02T08:37:52.072Z,97.19
2018-12-02T08:40:20.971Z,97.25
2018-12-02T08:42:49.876Z,97.21
2018-12-02T08:45:19.145Z,97.64
2018-12-02T08:47:48.047Z,97.45
2018-12-02T08:50:17.862Z,97.50
2018-12-02T08:52:47.895Z,97.47
2018-12-02T08:55:17.785Z,97.17
2018-12-02T08:57:47.075Z,97.53
2018-12-02T09:00:19.608Z,97.15
2018-12-02T09:03:08.692Z,95.78
2018-12-02T09:05:37.560Z,96.57
2018-12-02T09:08:07.945Z,96.11
2018-12-02T09:10:36.882Z,96.52
2018-12-02T09:13:07.761Z,96.16
2018-12-02T09:15:36.666Z,96.25
2018-12-02T09:18:07.799Z,96.66
2018-12-02T09:20:36.702Z,96.55
2018-12-02T09:23:07.194Z,95.13
2018-12-02T09:25:36.153Z,96.12
2018-12-02T09:28:05.409Z,95.92
2018-12-02T09:30:35.319Z,96.38
2018-12-02T09:33:04.239Z,96.03
2018-12-02T09:35:33.141Z,96.22
2018-12-02T09:38:02.037Z,96.48
2018-12-02T09:40:30.927Z,96.74
2018-12-02T09:42:59.844Z,96.75
2018-12-02T09:45:29.603Z,96.38
2018-12-02T09:48:00.211Z,96.17
2018-12-02T09:50:29.702Z,96.09
2018-12-02T09:52:59.676Z,96.20
2018-12-02T09:55:49.281Z,95.93
2018-12-02T09:58:26.514Z,96.68
2018-12-02T10:01:05.784Z,96.39
2018-12-02T10:03:42.225Z,96.61
2018-12-02T10:06:17.126Z,96.91
2018-12-02T10:08:46.722Z,96.77
2018-12-02T10:11:16.703Z,97.31
2018-12-02T10:13:46.555Z,97.14
2018-12-02T10:16:19.055Z,96.93
2018-12-02T10:18:46.706Z,97.02
2018-12-02T10:21:19.144Z,96.94
2018-12-02T10:23:49.122Z,96.78
2018-12-02T10:26:21.957Z,97.06
2018-12-02T10:28:54.366Z,96.38
2018-12-02T10:31:24.877Z,95.37
2018-12-02T10:33:54.519Z,94.31
2018-12-02T10:36:26.486Z,95.29
2018-12-02T10:38:56.400Z,95.43
2018-12-02T10:41:27.162Z,95.81
2018-12-02T10:43:56.630Z,95.99
2018-12-02T10:46:26.117Z,96.04
2018-12-02T10:48:57.277Z,96.34
2018-12-02T10:51:25.184Z,96.04
2018-12-02T10:54:00.043Z,96.31
2018-12-02T10:56:29.926Z,96.13
2018-12-02T10:58:59.349Z,96.27
2018-12-02T11:01:42.380Z,96.18
2018-12-02T11:04:14.973Z,96.46
2018-12-02T11:06:46.581Z,96.61
2018-12-02T11:09:18.883Z,96.61
2018-12-02T11:11:51.570Z,96.33
2018-12-02T11:14:28.439Z,96.02
2018-12-02T11:16:57.879Z,96.17
2018-12-02T11:19:29.108Z,96.07
2018-12-02T11:21:59.311Z,95.90
2018-12-02T11:24:29.285Z,96.22
2018-12-02T11:26:58.635Z,96.06
2018-12-02T11:29:33.687Z,96.19
2018-12-02T11:32:06.123Z,96.22
2018-12-02T11:34:36.813Z,95.78
2018-12-02T11:37:07.110Z,94.84
2018-12-02T11:39:37.313Z,95.77
2018-12-02T11:42:07.392Z,95.52
2018-12-02T11:44:36.793Z,95.27
2018-12-02T11:47:14.365Z,95.54
2018-12-02T11:49:49.679Z,95.41
2018-12-02T11:52:22.382Z,95.20
2018-12-02T11:54:51.589Z,94.91
2018-12-02T11:57:26.534Z,93.85
2018-12-02T11:59:54.376Z,94.49
2018-12-02T12:02:24.326Z,94.59
2018-12-02T12:04:54.262Z,94.14
2018-12-02T12:07:25.514Z,94.53
2018-12-02T12:09:59.394Z,94.51
2018-12-02T12:12:28.872Z,94.28
2018-12-02T12:14:58.372Z,93.98
2018-12-02T12:17:29.985Z,93.99
2018-12-02T12:19:59.576Z,94.36
2018-12-02T12:22:33.115Z,94.05
2018-12-02T12:25:02.983Z,93.53
2018-12-02T12:27:35.801Z,93.83
2018-12-02T12:30:09.042Z,94.25
2018-12-02T12:32:38.508Z,94.00
2018-12-02T12:35:11.435Z,94.06
2018-12-02T12:37:41.687Z,93.70
2018-12-02T12:40:33.583Z,93.91
2018-12-02T12:43:40.453Z,93.83
2018-12-02T12:46:12.521Z,94.05
2018-12-02T12:48:42.766Z,93.98
2018-12-02T12:51:12.700Z,94.12
2018-12-02T12:53:42.164Z,93.86
2018-12-02T12:56:15.321Z,93.89
2018-12-02T12:58:44.969Z,93.65
2018-12-02T13:01:14.378Z,93.75
2018-12-02T13:03:44.294Z,94.18
2018-12-02T13:06:13.473Z,94.49
2018-12-02T13:08:47.234Z,94.31
2018-12-02T13:11:17.106Z,92.96
2018-12-02T13:13:49.252Z,93.80
2018-12-02T13:16:24.531Z,93.40
2018-12-02T13:18:57.970Z,93.21
2018-12-02T13:21:28.969Z,93.50
2018-12-02T13:23:58.786Z,92.99
2018-12-02T13:26:31.766Z,92.92
2018-12-02T13:29:01.470Z,93.14
2018-12-02T13:31:38.086Z,93.40
2018-12-02T13:34:08.317Z,93.85
2018-12-02T13:36:39.785Z,93.53
2018-12-02T13:39:12.500Z,93.31
2018-12-02T13:41:42.032Z,93.44
2018-12-02T13:44:11.663Z,93.17
2018-12-02T13:46:43.201Z,93.71
2018-12-02T13:49:13.088Z,94.18
2018-12-02T13:51:42.367Z,92.72
2018-12-02T13:54:32.018Z,93.16
2018-12-02T13:57:01.792Z,93.42
2018-12-02T13:59:31.259Z,93.08
2018-12-02T14:02:06.596Z,93.25
2018-12-02T14:04:36.068Z,91.87
2018-12-02T14:07:08.792Z,93.41
2018-12-02T14:09:38.264Z,92.93
2018-12-02T14:12:09.872Z,92.97
2018-12-02T14:14:43.088Z,92.87
2018-12-02T14:17:18.971Z,93.02
2018-12-02T14:19:53.910Z,92.70
2018-12-02T14:22:23.120Z,92.60
2018-12-02T14:24:55.836Z,92.69
2018-12-02T14:27:30.374Z,93.34
2018-12-02T14:29:58.279Z,93.60
2018-12-02T14:32:28.381Z,93.32
2018-12-02T14:34:57.990Z,93.34
2018-12-02T14:37:27.736Z,93.38
2018-12-02T14:39:59.329Z,93.64
2018-12-02T14:42:28.972Z,93.68
2018-12-02T14:44:58.610Z,93.25
2018-12-02T14:47:27.951Z,93.43
2018-12-02T14:50:02.975Z,93.04
2018-12-02T14:52:35.625Z,93.31
2018-12-02T14:55:07.238Z,93.09
2018-12-02T14:57:36.670Z,92.97
2018-12-02T15:00:16.849Z,92.64
2018-12-02T15:02:45.239Z,93.09
2018-12-02T15:05:17.475Z,92.58
2018-12-02T15:07:46.957Z,92.69
2018-12-02T15:10:17.466Z,92.49
2018-12-02T15:12:48.463Z,92.54
2018-12-02T15:15:21.259Z,92.54
2018-12-02T15:17:56.396Z,92.52
2018-12-02T15:20:25.728Z,92.84
2018-12-02T15:22:58.425Z,92.83
2018-12-02T15:25:28.216Z,92.53
2018-12-02T15:27:58.682Z,92.66
2018-12-02T15:30:28.231Z,92.82
2018-12-02T15:32:57.655Z,92.79
2018-12-02T15:35:30.074Z,92.81
2018-12-02T15:37:59.507Z,92.62
2018-12-02T15:40:29.106Z,92.43
2018-12-02T15:42:59.931Z,92.55
2018-12-02T15:45:29.718Z,92.47
2018-12-02T15:47:58.638Z,92.74
2018-12-02T15:50:27.622Z,92.85
2018-12-02T15:52:56.525Z,93.01
2018-12-02T15:55:29.805Z,92.82
2018-12-02T15:57:59.640Z,92.93
2018-12-02T16:00:29.818Z,93.39
2018-12-02T16:02:58.748Z,93.12
2018-12-02T16:05:27.643Z,93.00
2018-12-02T16:07:56.539Z,92.12
2018-12-02T16:10:25.463Z,92.66
2018-12-02T16:12:54.519Z,92.33
2018-12-02T16:15:28.108Z,92.16
2018-12-02T16:17:56.997Z,92.63
2018-12-02T16:20:33.261Z,92.75
2018-12-02T16:23:02.186Z,92.56
2018-12-02T16:25:31.073Z,92.54
2018-12-02T16:27:59.966Z,92.64
2018-12-02T16:30:28.838Z,92.53
2018-12-02T16:32:57.749Z,92.67
2018-12-02T16:35:26.608Z,92.87
2018-12-02T16:37:55.968Z,92.55
2018-12-02T16:40:25.734Z,93.02
2018-12-02T16:42:55.749Z,92.75
2018-12-02T16:45:24.642Z,92.73
2018-12-02T16:47:54.851Z,92.30
2018-12-02T16:50:30.909Z,92.20
2018-12-02T16:53:34.297Z,92.19
2018-12-02T16:56:14.246Z,92.29
2018-12-02T16:59:14.984Z,92.43
2018-12-02T17:01:46.129Z,91.80
2018-12-02T17:04:15.196Z,91.92
2018-12-02T17:06:44.051Z,91.85
2018-12-02T17:09:13.348Z,92.20
2018-12-02T17:11:42.939Z,91.97
2018-12-02T17:14:11.847Z,91.83
2018-12-02T17:16:40.726Z,91.79
2018-12-02T17:19:09.634Z,91.77
2018-12-02T17:21:38.511Z,91.38
2018-12-02T17:24:08.731Z,91.49
2018-12-02T17:26:37.645Z,91.82
2018-12-02T17:29:09.090Z,91.46
2018-12-02T17:31:43.960Z,91.22
2018-12-02T17:34:12.852Z,90.95
2018-12-02T17:36:41.739Z,90.88
2018-12-02T17:39:15.603Z,91.02
2018-12-02T17:41:47.150Z,91.07
2018-12-02T17:44:16.056Z,90.98
2018-12-02T17:46:44.958Z,90.88
2018-12-02T17:49:13.869Z,90.78
2018-12-02T17:51:42.809Z,91.14
2018-12-02T17:54:11.638Z,91.20
2018-12-02T17:56:40.545Z,91.61
2018-12-02T17:59:09.475Z,91.49
2018-12-02T18:01:38.296Z,91.75
2018-12-02T18:04:08.011Z,90.00
2018-12-02T18:06:36.910Z,90.78
2018-12-02T18:09:09.549Z,90.60
2018-12-02T18:11:38.483Z,90.64
2018-12-02T18:14:07.469Z,90.38
2018-12-02T18:16:36.388Z,89.94
2018-12-02T18:19:05.965Z,89.39
2018-12-02T18:21:34.867Z,89.57
2018-12-02T18:24:03.742Z,89.46
2018-12-02T18:26:32.655Z,89.30
2018-12-02T18:29:01.546Z,89.52
2018-12-02T18:31:30.453Z,89.15
2018-12-02T18:33:59.354Z,89.08
2018-12-02T18:36:32.895Z,88.79
2018-12-02T18:39:01.826Z,88.56
2018-12-02T18:41:38.648Z,88.85
2018-12-02T18:44:09.601Z,88.46
2018-12-02T18:46:38.505Z,88.21
2018-12-02T18:49:07.462Z,88.13
2018-12-02T18:51:36.341Z,87.91
2018-12-02T18:54:06.379Z,87.20
2018-12-02T18:56:35.294Z,86.70
2018-12-02T18:59:04.232Z,87.64
2018-12-02T19:01:33.162Z,87.25
2018-12-02T19:04:02.438Z,87.73
2018-12-02T19:06:31.364Z,87.44
2018-12-02T19:09:00.247Z,87.67
2018-12-02T19:11:29.147Z,87.87
2018-12-02T19:13:58.053Z,88.21
2018-12-02T19:16:26.968Z,87.81
2018-12-02T19:18:55.857Z,88.37
2018-12-02T19:21:26.643Z,88.12
2018-12-02T19:23:57.222Z,88.35
2018-12-02T19:26:26.049Z,88.10
2018-12-02T19:28:54.936Z,86.78
2018-12-02T19:31:23.813Z,87.35
2018-12-02T19:33:54.779Z,87.84
2018-12-02T19:36:38.398Z,86.31
2018-12-02T19:39:11.309Z,87.37
2018-12-02T19:41:40.207Z,87.17
2018-12-02T19:44:09.129Z,87.42
2018-12-02T19:46:38.029Z,87.22
2018-12-02T19:49:07.010Z,87.04
2018-12-02T19:51:35.887Z,87.54
2018-12-02T19:54:04.841Z,87.13
2018-12-02T19:56:33.736Z,87.68
2018-12-02T19:59:02.643Z,87.58
2018-12-02T20:01:31.552Z,87.50
2018-12-02T20:04:00.463Z,87.71
2018-12-02T20:06:29.329Z,87.71
2018-12-02T20:08:58.248Z,87.92
2018-12-02T20:11:27.159Z,87.58
2018-12-02T20:13:56.061Z,88.00
2018-12-02T20:16:24.956Z,88.15
2018-12-02T20:18:53.869Z,87.97
2018-12-02T20:21:23.965Z,88.23
2018-12-02T20:24:11.070Z,88.36
2018-12-02T20:26:39.975Z,87.11
2018-12-02T20:29:08.933Z,87.96
2018-12-02T20:31:37.833Z,86.34
2018-12-02T20:34:06.965Z,87.71
2018-12-02T20:36:35.951Z,87.33
2018-12-02T20:39:08.669Z,86.40
2018-12-02T20:41:37.554Z,87.19
2018-12-02T20:44:06.750Z,87.41
2018-12-02T20:46:35.655Z,87.73
2018-12-02T20:49:04.525Z,87.89
2018-12-02T20:51:33.452Z,87.69
2018-12-02T20:54:02.352Z,87.87
2018-12-02T20:56:31.231Z,88.03
2018-12-02T20:59:00.112Z,87.77
2018-12-02T21:01:28.992Z,87.56
2018-12-02T21:03:58.772Z,87.78
2018-12-02T21:06:27.662Z,87.63
2018-12-02T21:08:56.537Z,86.71
2018-12-02T21:11:25.442Z,87.69
2018-12-02T21:13:54.347Z,87.96
2018-12-02T21:16:23.248Z,87.83
2018-12-02T21:18:52.149Z,87.79
2018-12-02T21:21:21.087Z,88.08
2018-12-02T21:23:49.979Z,87.93
2018-12-02T21:26:18.857Z,87.67
2018-12-02T21:28:47.768Z,88.32
2018-12-02T21:31:16.656Z,88.89
2018-12-02T21:33:45.579Z,88.40
2018-12-02T21:36:14.457Z,88.28
2018-12-02T21:38:43.363Z,88.60
2018-12-02T21:41:12.254Z,89.19
2018-12-02T21:43:41.152Z,90.18
2018-12-02T21:46:10.044Z,89.89
2018-12-02T21:48:38.939Z,90.00
2018-12-02T21:51:07.880Z,90.54
2018-12-02T21:53:36.783Z,90.69
2018-12-02T21:56:06.170Z,90.74
2018-12-02T21:58:35.098Z,91.15
2018-12-02T22:01:16.272Z,91.21
2018-12-02T22:03:45.195Z,91.71
2018-12-02T22:06:14.116Z,91.82
2018-12-02T22:08:43.055Z,92.34
2018-12-02T22:11:11.974Z,92.62
2018-12-02T22:13:43.392Z,93.04
2018-12-02T22:16:09.807Z,92.71
2018-12-02T22:18:38.716Z,93.03
2018-12-02T22:21:07.641Z,93.09
2018-12-02T22:23:36.547Z,93.34
2018-12-02T22:26:05.480Z,93.31
2018-12-02T22:28:34.403Z,93.02
2018-12-02T22:31:03.280Z,93.49
2018-12-02T22:33:32.185Z,93.10
2018-12-02T22:36:01.058Z,93.54
2018-12-02T22:38:29.970Z,93.73
2018-12-02T22:40:58.914Z,93.30
2018-12-02T22:43:27.814Z,93.55
2018-12-02T22:45:56.707Z,93.69
2018-12-02T22:48:25.607Z,92.47
2018-12-02T22:50:54.519Z,93.24
2018-12-02T22:53:23.649Z,93.83
2018-12-02T22:55:52.558Z,93.81
2018-12-02T22:58:21.454Z,93.67
2018-12-02T23:01:08.231Z,93.50
2018-12-02T23:03:37.145Z,93.30
2018-12-02T23:06:06.167Z,93.40
2018-12-02T23:08:35.052Z,93.18
2018-12-02T23:11:03.974Z,93.43
2018-12-02T23:13:32.868Z,93.37
2018-12-02T23:16:01.750Z,93.44
2018-12-02T23:18:30.673Z,93.60
2018-12-02T23:20:59.543Z,93.36
2018-12-02T23:23:28.447Z,93.52
2018-12-02T23:25:57.355Z,93.71
2018-12-02T23:28:26.264Z,93.13
2018-12-02T23:30:55.164Z,93.44
2018-12-02T23:33:24.080Z,92.73
2018-12-02T23:35:52.990Z,92.52
2018-12-02T23:38:21.911Z,92.95
2018-12-02T23:40:50.788Z,92.91
2018-12-02T23:43:19.672Z,92.84
2018-12-02T23:45:48.595Z,92.55
2018-12-02T23:48:17.506Z,92.67
2018-12-02T23:50:46.416Z,92.61
2018-12-02T23:53:15.311Z,92.37
2018-12-02T23:55:44.216Z,92.70
2018-12-02T23:58:13.083Z,93.01
